sensor_id;sensor_type;location;lat;lon;timestamp;pressure;altitude;pressure_sealevel;temperature;humidity
6030;BME280;3043;42.682;23.376;2022-09-09T00:04:32;95162.72;;;19.89;100.00
6030;BME280;3043;42.682;23.376;2022-09-09T00:09:29;95159.53;;;19.84;100.00
6030;BME280;3043;42.682;23.376;2022-09-09T00:15:12;95156.31;;;19.79;100.00
6030;BME280;3043;42.682;23.376;2022-09-09T00:20:14;95166.75;;;19.65;100.00
6030;BME280;3043;42.682;23.376;2022-09-09T00:22:50;95157.13;;;19.50;100.00
6030;BME280;3043;42.682;23.376;2022-09-09T00:25:44;95148.31;;;19.51;100.00
6030;BME280;3043;42.682;23.376;2022-09-09T00:28:22;95137.25;;;19.46;100.00
6030;BME280;3043;42.682;23.376;2022-09-09T00:30:48;95133.66;;;19.47;100.00
6030;BME280;3043;42.682;23.376;2022-09-09T00:33:16;95131.13;;;19.61;100.00
6030;BME280;3043;42.682;23.376;2022-09-09T00:35:57;95134.44;;;19.64;100.00
6030;BME280;3043;42.682;23.376;2022-09-09T00:38:42;95132.63;;;19.65;100.00
6030;BME280;3043;42.682;23.376;2022-09-09T00:44:30;95118.44;;;19.37;100.00
6030;BME280;3043;42.682;23.376;2022-09-09T00:52:18;95120.38;;;19.18;100.00
6030;BME280;3043;42.682;23.376;2022-09-09T00:54:50;95126.88;;;19.11;100.00
6030;BME280;3043;42.682;23.376;2022-09-09T00:57:31;95120.28;;;19.04;100.00
6030;BME280;3043;42.682;23.376;2022-09-09T01:00:16;95124.03;;;19.00;100.00
6030;BME280;3043;42.682;23.376;2022-09-09T01:05:27;95115.91;;;19.05;100.00
6030;BME280;3043;42.682;23.376;2022-09-09T01:07:57;95119.09;;;19.10;100.00
6030;BME280;3043;42.682;23.376;2022-09-09T01:10:39;95119.00;;;19.11;100.00
6030;BME280;3043;42.682;23.376;2022-09-09T01:13:18;95121.81;;;19.08;100.00
6030;BME280;3043;42.682;23.376;2022-09-09T01:15:47;95127.56;;;18.99;100.00
6030;BME280;3043;42.682;23.376;2022-09-09T01:18:17;95123.59;;;18.92;100.00
6030;BME280;3043;42.682;23.376;2022-09-09T01:23:41;95119.94;;;18.95;100.00
6030;BME280;3043;42.682;23.376;2022-09-09T01:28:48;95119.59;;;18.85;100.00
6030;BME280;3043;42.682;23.376;2022-09-09T01:31:19;95125.34;;;18.76;100.00
6030;BME280;3043;42.682;23.376;2022-09-09T01:33:45;95117.91;;;18.84;100.00
6030;BME280;3043;42.682;23.376;2022-09-09T01:36:34;95119.03;;;18.80;100.00
6030;BME280;3043;42.682;23.376;2022-09-09T01:39:02;95126.63;;;18.85;100.00
6030;BME280;3043;42.682;23.376;2022-09-09T01:41:28;95135.00;;;18.91;100.00
6030;BME280;3043;42.682;23.376;2022-09-09T01:43:54;95136.13;;;19.03;100.00
6030;BME280;3043;42.682;23.376;2022-09-09T01:46:22;95136.97;;;19.03;100.00
6030;BME280;3043;42.682;23.376;2022-09-09T01:48:49;95135.88;;;19.07;100.00
6030;BME280;3043;42.682;23.376;2022-09-09T01:51:15;95131.22;;;19.12;100.00
6030;BME280;3043;42.682;23.376;2022-09-09T01:53:41;95140.25;;;19.07;100.00
6030;BME280;3043;42.682;23.376;2022-09-09T02:04:27;95145.16;;;18.97;100.00
6030;BME280;3043;42.682;23.376;2022-09-09T02:06:56;95140.25;;;19.07;100.00
6030;BME280;3043;42.682;23.376;2022-09-09T02:09:24;95133.94;;;19.11;100.00
6030;BME280;3043;42.682;23.376;2022-09-09T02:11:56;95132.31;;;19.08;100.00
6030;BME280;3043;42.682;23.376;2022-09-09T02:14:28;95124.69;;;19.04;100.00
6030;BME280;3043;42.682;23.376;2022-09-09T02:17:03;95127.06;;;19.08;100.00
6030;BME280;3043;42.682;23.376;2022-09-09T02:19:48;95122.75;;;19.07;100.00
6030;BME280;3043;42.682;23.376;2022-09-09T02:22:21;95119.97;;;19.10;100.00
6030;BME280;3043;42.682;23.376;2022-09-09T02:24:49;95120.13;;;19.07;100.00
6030;BME280;3043;42.682;23.376;2022-09-09T02:27:18;95119.09;;;18.94;100.00
6030;BME280;3043;42.682;23.376;2022-09-09T02:29:44;95119.75;;;18.82;100.00
6030;BME280;3043;42.682;23.376;2022-09-09T02:32:14;95120.44;;;18.70;100.00
6030;BME280;3043;42.682;23.376;2022-09-09T02:34:49;95121.09;;;18.58;100.00
6030;BME280;3043;42.682;23.376;2022-09-09T02:37:19;95123.78;;;18.57;100.00
6030;BME280;3043;42.682;23.376;2022-09-09T02:39:46;95124.16;;;18.66;100.00
6030;BME280;3043;42.682;23.376;2022-09-09T02:42:11;95128.63;;;18.64;100.00
6030;BME280;3043;42.682;23.376;2022-09-09T02:44:40;95127.34;;;18.56;100.00
6030;BME280;3043;42.682;23.376;2022-09-09T02:47:37;95137.44;;;18.63;100.00
6030;BME280;3043;42.682;23.376;2022-09-09T02:50:20;95134.66;;;18.66;100.00
6030;BME280;3043;42.682;23.376;2022-09-09T02:53:21;95137.53;;;18.77;100.00
6030;BME280;3043;42.682;23.376;2022-09-09T02:55:55;95139.06;;;18.81;100.00
6030;BME280;3043;42.682;23.376;2022-09-09T02:58:22;95136.19;;;18.86;100.00
6030;BME280;3043;42.682;23.376;2022-09-09T03:00:50;95141.25;;;18.89;100.00
6030;BME280;3043;42.682;23.376;2022-09-09T03:03:16;95132.72;;;18.85;100.00
6030;BME280;3043;42.682;23.376;2022-09-09T03:05:43;95132.63;;;18.71;100.00
6030;BME280;3043;42.682;23.376;2022-09-09T03:08:09;95136.00;;;18.73;100.00
6030;BME280;3043;42.682;23.376;2022-09-09T03:10:34;95147.84;;;18.65;100.00
6030;BME280;3043;42.682;23.376;2022-09-09T03:13:00;95138.84;;;18.53;100.00
6030;BME280;3043;42.682;23.376;2022-09-09T03:15:26;95141.63;;;18.33;100.00
6030;BME280;3043;42.682;23.376;2022-09-09T03:17:56;95129.25;;;18.20;100.00
6030;BME280;3043;42.682;23.376;2022-09-09T03:20:26;95144.97;;;18.20;100.00
6030;BME280;3043;42.682;23.376;2022-09-09T03:22:56;95139.56;;;18.23;100.00
6030;BME280;3043;42.682;23.376;2022-09-09T03:25:22;95135.31;;;18.20;100.00
6030;BME280;3043;42.682;23.376;2022-09-09T03:27:53;95128.25;;;17.88;100.00
6030;BME280;3043;42.682;23.376;2022-09-09T03:30:24;95129.97;;;17.89;100.00
6030;BME280;3043;42.682;23.376;2022-09-09T03:32:50;95134.66;;;17.83;100.00
6030;BME280;3043;42.682;23.376;2022-09-09T03:35:16;95133.66;;;17.85;100.00
6030;BME280;3043;42.682;23.376;2022-09-09T03:37:42;95131.97;;;17.84;100.00
6030;BME280;3043;42.682;23.376;2022-09-09T03:40:08;95128.09;;;17.91;100.00
6030;BME280;3043;42.682;23.376;2022-09-09T03:42:35;95137.34;;;17.81;100.00
6030;BME280;3043;42.682;23.376;2022-09-09T03:45:05;95130.28;;;18.00;100.00
6030;BME280;3043;42.682;23.376;2022-09-09T03:47:31;95137.34;;;17.98;100.00
6030;BME280;3043;42.682;23.376;2022-09-09T03:49:57;95136.72;;;17.93;100.00
6030;BME280;3043;42.682;23.376;2022-09-09T03:52:22;95133.94;;;17.79;100.00
6030;BME280;3043;42.682;23.376;2022-09-09T03:54:50;95144.59;;;17.76;100.00
6030;BME280;3043;42.682;23.376;2022-09-09T03:57:16;95140.13;;;17.95;100.00
6030;BME280;3043;42.682;23.376;2022-09-09T03:59:43;95146.28;;;17.94;100.00
6030;BME280;3043;42.682;23.376;2022-09-09T04:02:08;95141.19;;;18.08;100.00
6030;BME280;3043;42.682;23.376;2022-09-09T04:04:34;95148.47;;;18.03;100.00
6030;BME280;3043;42.682;23.376;2022-09-09T04:07:00;95152.38;;;17.95;100.00
6030;BME280;3043;42.682;23.376;2022-09-09T04:09:25;95157.13;;;17.87;100.00
6030;BME280;3043;42.682;23.376;2022-09-09T04:11:51;95151.91;;;17.87;100.00
6030;BME280;3043;42.682;23.376;2022-09-09T04:14:18;95150.13;;;18.04;100.00
6030;BME280;3043;42.682;23.376;2022-09-09T04:16:43;95147.75;;;18.00;100.00
6030;BME280;3043;42.682;23.376;2022-09-09T04:19:10;95149.50;;;18.16;100.00
6030;BME280;3043;42.682;23.376;2022-09-09T04:21:38;95145.31;;;18.29;100.00
6030;BME280;3043;42.682;23.376;2022-09-09T04:24:05;95146.28;;;18.45;100.00
6030;BME280;3043;42.682;23.376;2022-09-09T04:26:31;95140.53;;;18.54;100.00
6030;BME280;3043;42.682;23.376;2022-09-09T04:28:56;95144.31;;;18.81;100.00
6030;BME280;3043;42.682;23.376;2022-09-09T04:31:22;95150.09;;;19.03;100.00
6030;BME280;3043;42.682;23.376;2022-09-09T04:33:51;95145.34;;;19.25;100.00
6030;BME280;3043;42.682;23.376;2022-09-09T04:36:18;95155.00;;;19.72;100.00
6030;BME280;3043;42.682;23.376;2022-09-09T04:38:45;95153.28;;;20.30;100.00
6030;BME280;3043;42.682;23.376;2022-09-09T04:41:11;95150.28;;;20.36;100.00
6030;BME280;3043;42.682;23.376;2022-09-09T04:43:38;95160.69;;;20.81;100.00
6030;BME280;3043;42.682;23.376;2022-09-09T04:46:04;95154.25;;;21.27;100.00
6030;BME280;3043;42.682;23.376;2022-09-09T04:48:30;95168.06;;;21.45;100.00
6030;BME280;3043;42.682;23.376;2022-09-09T04:51:04;95165.34;;;21.32;100.00
6030;BME280;3043;42.682;23.376;2022-09-09T04:53:30;95154.06;;;21.30;100.00
6030;BME280;3043;42.682;23.376;2022-09-09T04:56:10;95148.66;;;21.05;100.00
6030;BME280;3043;42.682;23.376;2022-09-09T04:58:36;95142.25;;;21.09;100.00
6030;BME280;3043;42.682;23.376;2022-09-09T05:01:17;95141.25;;;21.38;100.00
6030;BME280;3043;42.682;23.376;2022-09-09T05:03:43;95147.63;;;22.01;100.00
6030;BME280;3043;42.682;23.376;2022-09-09T05:06:12;95149.22;;;22.80;100.00
6030;BME280;3043;42.682;23.376;2022-09-09T05:08:39;95143.38;;;23.62;100.00
6030;BME280;3043;42.682;23.376;2022-09-09T05:11:20;95133.75;;;24.88;100.00
6030;BME280;3043;42.682;23.376;2022-09-09T05:13:46;95137.59;;;25.39;100.00
6030;BME280;3043;42.682;23.376;2022-09-09T05:16:13;95139.59;;;26.11;96.93
6030;BME280;3043;42.682;23.376;2022-09-09T05:18:39;95140.22;;;26.04;97.31
6030;BME280;3043;42.682;23.376;2022-09-09T05:21:04;95144.34;;;26.81;91.66
6030;BME280;3043;42.682;23.376;2022-09-09T05:23:30;95144.53;;;27.19;88.52
6030;BME280;3043;42.682;23.376;2022-09-09T05:25:57;95139.22;;;27.19;84.44
6030;BME280;3043;42.682;23.376;2022-09-09T05:28:26;95141.44;;;27.44;84.49
6030;BME280;3043;42.682;23.376;2022-09-09T05:31:06;95145.09;;;27.92;80.08
6030;BME280;3043;42.682;23.376;2022-09-09T05:33:36;95138.09;;;28.29;76.29
6030;BME280;3043;42.682;23.376;2022-09-09T05:36:04;95137.44;;;28.46;72.91
6030;BME280;3043;42.682;23.376;2022-09-09T05:38:31;95141.75;;;28.66;69.92
6030;BME280;3043;42.682;23.376;2022-09-09T05:40:57;95139.22;;;28.74;70.60
6030;BME280;3043;42.682;23.376;2022-09-09T05:43:23;95140.13;;;29.48;65.04
6030;BME280;3043;42.682;23.376;2022-09-09T05:46:00;95145.00;;;29.25;63.33
6030;BME280;3043;42.682;23.376;2022-09-09T05:48:34;95145.03;;;29.16;63.93
6030;BME280;3043;42.682;23.376;2022-09-09T05:51:01;95150.91;;;29.29;62.44
6030;BME280;3043;42.682;23.376;2022-09-09T05:53:28;95147.97;;;29.22;61.87
6030;BME280;3043;42.682;23.376;2022-09-09T05:56:02;95142.34;;;29.53;59.41
6030;BME280;3043;42.682;23.376;2022-09-09T05:58:31;95150.13;;;30.18;52.92
6030;BME280;3043;42.682;23.376;2022-09-09T06:01:04;95152.44;;;30.83;51.03
6030;BME280;3043;42.682;23.376;2022-09-09T06:03:30;95150.78;;;30.47;50.90
6030;BME280;3043;42.682;23.376;2022-09-09T06:05:58;95159.56;;;30.74;50.23
6030;BME280;3043;42.682;23.376;2022-09-09T06:08:24;95163.06;;;30.92;47.73
6030;BME280;3043;42.682;23.376;2022-09-09T06:10:49;95165.47;;;30.43;47.32
6030;BME280;3043;42.682;23.376;2022-09-09T06:13:15;95170.63;;;30.62;46.85
6030;BME280;3043;42.682;23.376;2022-09-09T06:15:49;95168.47;;;30.48;47.17
6030;BME280;3043;42.682;23.376;2022-09-09T06:18:15;95157.03;;;29.76;49.35
6030;BME280;3043;42.682;23.376;2022-09-09T06:23:20;95167.81;;;30.19;48.40
6030;BME280;3043;42.682;23.376;2022-09-09T06:25:46;95166.00;;;30.02;49.90
6030;BME280;3043;42.682;23.376;2022-09-09T06:28:12;95171.09;;;30.75;47.62
6030;BME280;3043;42.682;23.376;2022-09-09T06:30:38;95171.34;;;31.07;46.99
6030;BME280;3043;42.682;23.376;2022-09-09T06:33:05;95173.28;;;31.40;46.44
6030;BME280;3043;42.682;23.376;2022-09-09T06:35:30;95176.56;;;31.93;44.53
6030;BME280;3043;42.682;23.376;2022-09-09T06:37:55;95163.66;;;32.46;43.13
6030;BME280;3043;42.682;23.376;2022-09-09T06:40:21;95170.75;;;32.96;41.24
6030;BME280;3043;42.682;23.376;2022-09-09T06:42:47;95162.03;;;32.94;40.56
6030;BME280;3043;42.682;23.376;2022-09-09T06:45:13;95161.66;;;32.81;40.13
6030;BME280;3043;42.682;23.376;2022-09-09T06:47:38;95159.88;;;32.15;41.64
6030;BME280;3043;42.682;23.376;2022-09-09T06:50:04;95151.25;;;31.88;43.00
6030;BME280;3043;42.682;23.376;2022-09-09T06:52:31;95151.13;;;31.97;42.37
6030;BME280;3043;42.682;23.376;2022-09-09T06:54:56;95163.91;;;31.44;44.46
6030;BME280;3043;42.682;23.376;2022-09-09T06:57:23;95175.63;;;32.18;42.94
6030;BME280;3043;42.682;23.376;2022-09-09T06:59:49;95175.88;;;32.49;41.20
6030;BME280;3043;42.682;23.376;2022-09-09T07:02:14;95182.13;;;32.74;40.57
6030;BME280;3043;42.682;23.376;2022-09-09T07:04:40;95168.84;;;34.07;38.90
6030;BME280;3043;42.682;23.376;2022-09-09T07:07:05;95178.41;;;34.40;37.66
6030;BME280;3043;42.682;23.376;2022-09-09T07:09:31;95174.47;;;34.20;37.02
6030;BME280;3043;42.682;23.376;2022-09-09T07:11:57;95173.00;;;34.48;36.87
6030;BME280;3043;42.682;23.376;2022-09-09T07:14:27;95161.09;;;34.12;37.34
6030;BME280;3043;42.682;23.376;2022-09-09T07:16:52;95166.91;;;34.54;37.09
6030;BME280;3043;42.682;23.376;2022-09-09T07:19:18;95170.03;;;34.88;35.59
6030;BME280;3043;42.682;23.376;2022-09-09T07:21:43;95172.97;;;35.16;34.22
6030;BME280;3043;42.682;23.376;2022-09-09T07:24:10;95170.72;;;34.82;35.32
6030;BME280;3043;42.682;23.376;2022-09-09T07:26:37;95164.97;;;34.85;36.21
6030;BME280;3043;42.682;23.376;2022-09-09T07:29:03;95159.72;;;35.14;35.66
6030;BME280;3043;42.682;23.376;2022-09-09T07:31:34;95165.66;;;35.76;34.36
6030;BME280;3043;42.682;23.376;2022-09-09T07:34:02;95167.06;;;36.51;33.04
6030;BME280;3043;42.682;23.376;2022-09-09T07:36:38;95167.66;;;36.68;31.86
6030;BME280;3043;42.682;23.376;2022-09-09T07:39:07;95161.19;;;36.12;32.56
6030;BME280;3043;42.682;23.376;2022-09-09T07:41:35;95152.56;;;35.58;34.86
6030;BME280;3043;42.682;23.376;2022-09-09T07:44:06;95161.84;;;35.70;33.76
6030;BME280;3043;42.682;23.376;2022-09-09T07:46:32;95166.31;;;35.49;33.19
6030;BME280;3043;42.682;23.376;2022-09-09T07:48:59;95172.06;;;36.19;32.84
6030;BME280;3043;42.682;23.376;2022-09-09T07:51:28;95172.84;;;35.83;33.15
6030;BME280;3043;42.682;23.376;2022-09-09T07:53:57;95172.31;;;36.24;32.90
6030;BME280;3043;42.682;23.376;2022-09-09T07:56:25;95169.34;;;36.69;32.55
6030;BME280;3043;42.682;23.376;2022-09-09T07:58:52;95173.66;;;36.84;31.89
6030;BME280;3043;42.682;23.376;2022-09-09T08:01:25;95162.72;;;37.62;31.21
6030;BME280;3043;42.682;23.376;2022-09-09T08:03:59;95164.50;;;37.76;31.07
6030;BME280;3043;42.682;23.376;2022-09-09T08:06:27;95162.91;;;37.54;31.13
6030;BME280;3043;42.682;23.376;2022-09-09T08:08:54;95160.72;;;37.43;30.80
6030;BME280;3043;42.682;23.376;2022-09-09T08:11:21;95168.50;;;37.59;31.24
6030;BME280;3043;42.682;23.376;2022-09-09T08:13:48;95164.97;;;37.86;30.45
6030;BME280;3043;42.682;23.376;2022-09-09T08:16:17;95167.31;;;37.13;31.29
6030;BME280;3043;42.682;23.376;2022-09-09T08:18:43;95162.97;;;35.91;32.93
6030;BME280;3043;42.682;23.376;2022-09-09T08:21:14;95152.09;;;35.03;34.76
6030;BME280;3043;42.682;23.376;2022-09-09T08:23:44;95155.28;;;34.76;35.80
6030;BME280;3043;42.682;23.376;2022-09-09T08:26:19;95153.16;;;35.31;34.49
6030;BME280;3043;42.682;23.376;2022-09-09T08:28:48;95148.88;;;35.59;34.86
6030;BME280;3043;42.682;23.376;2022-09-09T08:31:18;95155.91;;;35.60;35.40
6030;BME280;3043;42.682;23.376;2022-09-09T08:33:44;95154.97;;;36.12;33.83
6030;BME280;3043;42.682;23.376;2022-09-09T08:36:18;95154.25;;;35.59;34.10
6030;BME280;3043;42.682;23.376;2022-09-09T08:38:47;95140.50;;;34.80;34.66
6030;BME280;3043;42.682;23.376;2022-09-09T08:52:39;95129.81;;;32.78;39.67
6030;BME280;3043;42.682;23.376;2022-09-09T08:55:32;95133.88;;;32.90;39.04
6030;BME280;3043;42.682;23.376;2022-09-09T08:58:10;95130.81;;;32.36;40.16
6030;BME280;3043;42.682;23.376;2022-09-09T09:00:58;95127.38;;;31.61;42.48
6030;BME280;3043;42.682;23.376;2022-09-09T09:03:33;95129.75;;;32.21;41.63
6030;BME280;3043;42.682;23.376;2022-09-09T09:06:21;95132.16;;;32.81;40.21
6030;BME280;3043;42.682;23.376;2022-09-09T09:09:03;95134.72;;;32.90;39.99
6030;BME280;3043;42.682;23.376;2022-09-09T09:11:36;95130.66;;;32.78;39.68
6030;BME280;3043;42.682;23.376;2022-09-09T09:14:13;95130.19;;;32.58;41.04
6030;BME280;3043;42.682;23.376;2022-09-09T09:16:54;95125.19;;;32.88;41.61
6030;BME280;3043;42.682;23.376;2022-09-09T09:19:21;95123.97;;;33.69;39.40
6030;BME280;3043;42.682;23.376;2022-09-09T09:22:04;95129.03;;;34.33;38.11
6030;BME280;3043;42.682;23.376;2022-09-09T09:24:56;95124.97;;;34.14;37.87
6030;BME280;3043;42.682;23.376;2022-09-09T09:27:36;95127.72;;;33.60;39.88
6030;BME280;3043;42.682;23.376;2022-09-09T09:30:27;95118.00;;;33.35;40.46
6030;BME280;3043;42.682;23.376;2022-09-09T09:33:01;95119.41;;;33.39;40.70
6030;BME280;3043;42.682;23.376;2022-09-09T09:35:28;95134.84;;;33.13;39.80
6030;BME280;3043;42.682;23.376;2022-09-09T09:37:54;95117.44;;;32.77;41.60
6030;BME280;3043;42.682;23.376;2022-09-09T09:40:21;95120.78;;;32.62;42.19
6030;BME280;3043;42.682;23.376;2022-09-09T09:45:32;95116.53;;;32.28;42.47
6030;BME280;3043;42.682;23.376;2022-09-09T09:48:03;95113.38;;;31.75;42.78
6030;BME280;3043;42.682;23.376;2022-09-09T09:50:30;95103.06;;;31.46;45.41
6030;BME280;3043;42.682;23.376;2022-09-09T09:53:02;95096.88;;;31.46;44.89
6030;BME280;3043;42.682;23.376;2022-09-09T09:55:31;95094.06;;;31.63;43.71
6030;BME280;3043;42.682;23.376;2022-09-09T09:58:05;95089.66;;;31.38;44.30
6030;BME280;3043;42.682;23.376;2022-09-09T10:00:32;95097.19;;;31.43;44.77
6030;BME280;3043;42.682;23.376;2022-09-09T10:03:00;95090.91;;;31.26;45.75
6030;BME280;3043;42.682;23.376;2022-09-09T10:05:28;95094.06;;;31.55;45.03
6030;BME280;3043;42.682;23.376;2022-09-09T10:08:12;95088.22;;;31.26;46.12
6030;BME280;3043;42.682;23.376;2022-09-09T10:16:20;95106.78;;;31.28;47.36
6030;BME280;3043;42.682;23.376;2022-09-09T10:19:12;95109.69;;;31.34;46.82
6030;BME280;3043;42.682;23.376;2022-09-09T10:27:09;95106.34;;;30.81;47.42
6030;BME280;3043;42.682;23.376;2022-09-09T10:30:01;95102.69;;;30.47;48.59
6030;BME280;3043;42.682;23.376;2022-09-09T10:32:51;95107.03;;;30.13;49.64
6030;BME280;3043;42.682;23.376;2022-09-09T10:35:30;95103.16;;;29.90;50.83
6030;BME280;3043;42.682;23.376;2022-09-09T10:38:14;95105.00;;;29.53;53.87
6030;BME280;3043;42.682;23.376;2022-09-09T10:40:49;95108.28;;;29.47;56.36
6030;BME280;3043;42.682;23.376;2022-09-09T10:46:29;95097.91;;;29.43;58.16
6030;BME280;3043;42.682;23.376;2022-09-09T10:55:00;95110.16;;;29.36;59.92
6030;BME280;3043;42.682;23.376;2022-09-09T10:57:40;95108.88;;;29.40;60.00
6030;BME280;3043;42.682;23.376;2022-09-09T11:00:16;95101.41;;;29.44;60.70
6030;BME280;3043;42.682;23.376;2022-09-09T11:02:43;95101.94;;;29.48;61.12
6030;BME280;3043;42.682;23.376;2022-09-09T11:05:20;95107.09;;;29.31;62.86
6030;BME280;3043;42.682;23.376;2022-09-09T11:07:59;95098.97;;;29.23;61.94
6030;BME280;3043;42.682;23.376;2022-09-09T11:13:14;95108.28;;;29.00;65.16
6030;BME280;3043;42.682;23.376;2022-09-09T11:15:59;95106.63;;;28.99;65.62
6030;BME280;3043;42.682;23.376;2022-09-09T11:18:29;95104.19;;;28.69;68.77
6030;BME280;3043;42.682;23.376;2022-09-09T11:20:59;95097.84;;;28.70;69.86
6030;BME280;3043;42.682;23.376;2022-09-09T11:23:45;95092.53;;;28.61;71.48
6030;BME280;3043;42.682;23.376;2022-09-09T11:26:18;95088.22;;;28.50;73.18
6030;BME280;3043;42.682;23.376;2022-09-09T11:34:42;95068.38;;;29.27;69.10
6030;BME280;3043;42.682;23.376;2022-09-09T11:40:17;95064.81;;;29.36;67.25
6030;BME280;3043;42.682;23.376;2022-09-09T11:42:44;95054.09;;;29.19;67.14
6030;BME280;3043;42.682;23.376;2022-09-09T11:45:31;95053.94;;;28.84;68.93
6030;BME280;3043;42.682;23.376;2022-09-09T11:48:00;95045.31;;;28.53;74.87
6030;BME280;3043;42.682;23.376;2022-09-09T11:53:23;95031.81;;;28.74;72.44
6030;BME280;3043;42.682;23.376;2022-09-09T11:56:42;95010.41;;;28.93;71.74
6030;BME280;3043;42.682;23.376;2022-09-09T11:59:21;95007.84;;;29.10;69.38
6030;BME280;3043;42.682;23.376;2022-09-09T12:02:13;95019.59;;;29.17;69.81
6030;BME280;3043;42.682;23.376;2022-09-09T12:07:31;95036.84;;;29.40;71.56
6030;BME280;3043;42.682;23.376;2022-09-09T12:10:03;95030.50;;;29.69;69.50
6030;BME280;3043;42.682;23.376;2022-09-09T12:12:36;95026.41;;;29.92;64.63
6030;BME280;3043;42.682;23.376;2022-09-09T12:17:50;95019.09;;;30.29;61.67
6030;BME280;3043;42.682;23.376;2022-09-09T12:20:30;95010.00;;;30.22;62.28
6030;BME280;3043;42.682;23.376;2022-09-09T12:23:10;95006.88;;;30.09;62.63
6030;BME280;3043;42.682;23.376;2022-09-09T12:28:19;95003.91;;;29.77;67.71
6030;BME280;3043;42.682;23.376;2022-09-09T12:30:55;95000.13;;;29.79;68.13
6030;BME280;3043;42.682;23.376;2022-09-09T12:33:23;95004.53;;;29.88;69.19
6030;BME280;3043;42.682;23.376;2022-09-09T12:35:59;94993.31;;;30.20;68.88
6030;BME280;3043;42.682;23.376;2022-09-09T12:38:34;94994.34;;;30.27;67.79
6030;BME280;3043;42.682;23.376;2022-09-09T12:41:01;94982.88;;;30.60;63.81
6030;BME280;3043;42.682;23.376;2022-09-09T12:43:27;94985.06;;;30.64;62.81
6030;BME280;3043;42.682;23.376;2022-09-09T12:46:12;94981.28;;;30.67;63.24
6030;BME280;3043;42.682;23.376;2022-09-09T12:48:41;94977.94;;;30.39;64.53
6030;BME280;3043;42.682;23.376;2022-09-09T12:51:23;94982.97;;;30.25;65.08
6030;BME280;3043;42.682;23.376;2022-09-09T12:53:51;94976.88;;;30.15;66.80
6030;BME280;3043;42.682;23.376;2022-09-09T12:56:22;94980.34;;;29.90;69.41
6030;BME280;3043;42.682;23.376;2022-09-09T12:58:51;94976.13;;;29.52;71.40
6030;BME280;3043;42.682;23.376;2022-09-09T13:01:26;94963.84;;;29.41;72.10
6030;BME280;3043;42.682;23.376;2022-09-09T13:03:52;94960.94;;;29.17;74.63
6030;BME280;3043;42.682;23.376;2022-09-09T13:06:38;94967.25;;;28.89;80.18
6030;BME280;3043;42.682;23.376;2022-09-09T13:09:03;94963.88;;;28.87;83.18
6030;BME280;3043;42.682;23.376;2022-09-09T13:11:38;94965.75;;;29.04;79.24
6030;BME280;3043;42.682;23.376;2022-09-09T13:14:04;94952.31;;;28.96;80.49
6030;BME280;3043;42.682;23.376;2022-09-09T13:16:35;94953.56;;;28.75;84.41
6030;BME280;3043;42.682;23.376;2022-09-09T13:19:14;94958.72;;;28.76;85.06
6030;BME280;3043;42.682;23.376;2022-09-09T13:21:41;94957.06;;;29.02;83.62
6030;BME280;3043;42.682;23.376;2022-09-09T13:24:40;94953.19;;;29.41;77.90
6030;BME280;3043;42.682;23.376;2022-09-09T13:27:33;94948.78;;;29.68;75.29
6030;BME280;3043;42.682;23.376;2022-09-09T13:29:59;94940.41;;;29.63;74.06
6030;BME280;3043;42.682;23.376;2022-09-09T13:32:26;94928.81;;;29.72;75.90
6030;BME280;3043;42.682;23.376;2022-09-09T13:34:55;94939.44;;;29.64;74.99
6030;BME280;3043;42.682;23.376;2022-09-09T13:39:55;94928.00;;;29.71;79.26
6030;BME280;3043;42.682;23.376;2022-09-09T13:42:24;94924.84;;;29.76;75.93
6030;BME280;3043;42.682;23.376;2022-09-09T13:44:50;94928.41;;;29.49;78.57
6030;BME280;3043;42.682;23.376;2022-09-09T13:47:21;94925.16;;;29.37;80.79
6030;BME280;3043;42.682;23.376;2022-09-09T13:49:48;94912.13;;;29.34;78.57
6030;BME280;3043;42.682;23.376;2022-09-09T13:52:16;94919.56;;;29.13;79.96
6030;BME280;3043;42.682;23.376;2022-09-09T13:54:42;94918.44;;;28.89;83.25
6030;BME280;3043;42.682;23.376;2022-09-09T13:57:22;94908.84;;;28.32;89.37
6030;BME280;3043;42.682;23.376;2022-09-09T13:59:49;94919.41;;;28.24;90.34
6030;BME280;3043;42.682;23.376;2022-09-09T14:02:16;94920.53;;;28.12;92.84
6030;BME280;3043;42.682;23.376;2022-09-09T14:04:42;94916.34;;;28.19;93.37
6030;BME280;3043;42.682;23.376;2022-09-09T14:07:12;94910.88;;;28.21;92.40
6030;BME280;3043;42.682;23.376;2022-09-09T14:09:39;94913.88;;;28.35;90.23
6030;BME280;3043;42.682;23.376;2022-09-09T14:12:08;94917.47;;;28.53;87.57
6030;BME280;3043;42.682;23.376;2022-09-09T14:14:34;94908.69;;;28.43;89.33
6030;BME280;3043;42.682;23.376;2022-09-09T14:17:00;94905.75;;;28.46;89.52
6030;BME280;3043;42.682;23.376;2022-09-09T14:19:25;94900.97;;;28.40;88.08
6030;BME280;3043;42.682;23.376;2022-09-09T14:21:51;94898.22;;;28.23;89.89
6030;BME280;3043;42.682;23.376;2022-09-09T14:24:16;94901.09;;;28.02;89.24
6030;BME280;3043;42.682;23.376;2022-09-09T14:26:42;94891.06;;;27.87;93.60
6030;BME280;3043;42.682;23.376;2022-09-09T14:29:08;94889.34;;;27.86;95.52
6030;BME280;3043;42.682;23.376;2022-09-09T14:31:33;94891.63;;;27.90;91.49
6030;BME280;3043;42.682;23.376;2022-09-09T14:33:59;94898.19;;;27.86;88.88
6030;BME280;3043;42.682;23.376;2022-09-09T14:36:24;94904.47;;;27.85;89.42
6030;BME280;3043;42.682;23.376;2022-09-09T14:38:51;94896.09;;;27.80;91.25
6030;BME280;3043;42.682;23.376;2022-09-09T14:41:19;94895.00;;;27.92;90.55
6030;BME280;3043;42.682;23.376;2022-09-09T14:43:46;94893.69;;;27.96;89.55
6030;BME280;3043;42.682;23.376;2022-09-09T14:46:17;94892.75;;;27.88;89.62
6030;BME280;3043;42.682;23.376;2022-09-09T14:48:43;94875.25;;;27.66;91.04
6030;BME280;3043;42.682;23.376;2022-09-09T14:53:44;94888.56;;;27.47;94.17
6030;BME280;3043;42.682;23.376;2022-09-09T14:56:13;94880.47;;;27.39;94.94
6030;BME280;3043;42.682;23.376;2022-09-09T14:58:39;94886.19;;;27.44;95.31
6030;BME280;3043;42.682;23.376;2022-09-09T15:01:10;94900.75;;;27.40;96.54
6030;BME280;3043;42.682;23.376;2022-09-09T15:03:37;94894.59;;;27.39;96.75
6030;BME280;3043;42.682;23.376;2022-09-09T15:06:11;94892.22;;;27.27;98.23
6030;BME280;3043;42.682;23.376;2022-09-09T15:08:38;94897.22;;;27.20;98.68